Time;durP1;ratioP1;P1;durP2;ratioP2;P2;SDS_P1;SDS_P2;PMS_P1;PMS_P2;Temp;Humidity;BMP_temperature;BMP_pressure;BME280_temperature;BME280_humidity;BME280_pressure;Samples;Min_cycle;Max_cycle;Signal;HPM_P1;HPM_P2
2023/12/07 00:01:06;;;;;;;0.20;0.20;;;;;;;7.11;100.00;94247.56;5028569;28;20684;-78
2023/12/07 00:03:32;;;;;;;4.10;2.00;;;;;;;6.75;100.00;94250.53;5029532;28;20258;-76
2023/12/07 00:06:01;;;;;;;0.90;0.90;;;;;;;6.78;100.00;94249.91;5027865;28;20212;-77
2023/12/07 00:08:27;;;;;;;1.48;1.38;;;;;;;6.90;100.00;94250.09;5026851;28;20573;-76
2023/12/07 00:10:54;;;;;;;0.40;0.40;;;;;;;6.76;100.00;94252.09;5028484;28;20262;-77
2023/12/07 00:13:21;;;;;;;1.08;1.08;;;;;;;6.32;100.00;94248.47;5027911;28;20782;-78
2023/12/07 00:15:48;;;;;;;1.45;0.85;;;;;;;6.50;100.00;94253.91;5028230;28;20600;-79
2023/12/07 00:18:15;;;;;;;0.40;0.40;;;;;;;6.54;100.00;94241.44;5011964;28;20615;-78
2023/12/07 00:20:42;;;;;;;0.40;0.40;;;;;;;6.23;100.00;94253.00;5029963;28;20204;-78
2023/12/07 00:23:11;;;;;;;0.20;0.20;;;;;;;6.15;100.00;94251.06;5027908;28;20609;-78
2023/12/07 00:25:38;;;;;;;0.32;0.32;;;;;;;6.23;100.00;94250.31;5024639;28;20215;-78
2023/12/07 00:28:05;;;;;;;0.32;0.32;;;;;;;6.27;100.00;94254.00;5029522;28;20203;-78
2023/12/07 00:30:31;;;;;;;0.90;0.90;;;;;;;6.41;100.00;94252.00;5028493;28;20217;-76
2023/12/07 00:32:59;;;;;;;0.52;0.52;;;;;;;6.42;100.00;94256.25;5029140;28;20680;-77
2023/12/07 00:35:28;;;;;;;0.32;0.32;;;;;;;6.54;100.00;94254.91;5029047;28;20228;-78
2023/12/07 00:37:56;;;;;;;0.20;0.20;;;;;;;6.83;100.00;94246.28;5027431;28;20224;-77
2023/12/07 00:40:24;;;;;;;1.30;1.20;;;;;;;6.99;100.00;94245.50;5029309;28;20299;-77
2023/12/07 00:42:50;;;;;;;0.30;0.30;;;;;;;7.09;100.00;94253.31;5028660;28;20540;-77
2023/12/07 00:45:17;;;;;;;1.08;1.05;;;;;;;7.25;100.00;94247.44;5025748;28;20212;-78
2023/12/07 00:47:44;;;;;;;0.60;0.60;;;;;;;7.38;100.00;94251.91;5028467;28;20196;-78
2023/12/07 00:50:13;;;;;;;0.70;0.70;;;;;;;7.35;100.00;94249.84;5029451;28;20251;-78
2023/12/07 00:52:40;;;;;;;1.20;1.13;;;;;;;7.36;100.00;94243.34;5023038;28;20236;-73
2023/12/07 00:55:07;;;;;;;0.55;0.55;;;;;;;7.41;100.00;94245.88;5029201;28;20219;-74
2023/12/07 00:57:36;;;;;;;0.40;0.40;;;;;;;7.31;100.00;94235.41;5024919;28;20211;-73
2023/12/07 01:00:03;;;;;;;0.75;0.75;;;;;;;7.22;100.00;94242.69;5024508;28;20215;-74
2023/12/07 01:02:30;;;;;;;1.13;1.02;;;;;;;7.38;100.00;94243.81;5026867;28;20212;-73
2023/12/07 01:04:57;;;;;;;0.93;0.93;;;;;;;7.29;100.00;94243.00;5028639;28;20204;-73
2023/12/07 01:07:24;;;;;;;1.15;1.15;;;;;;;7.29;100.00;94240.31;5032099;28;20208;-72
2023/12/07 01:09:51;;;;;;;0.30;0.30;;;;;;;7.29;100.00;94238.41;5028154;28;20295;-73
2023/12/07 01:12:17;;;;;;;0.43;0.43;;;;;;;7.34;100.00;94238.28;5030146;28;20658;-71
2023/12/07 01:14:45;;;;;;;0.30;0.30;;;;;;;7.31;100.00;94232.72;5030059;28;20224;-77
2023/12/07 01:17:12;;;;;;;0.20;0.20;;;;;;;7.14;100.00;94242.34;5032930;28;20286;-78
2023/12/07 01:19:39;;;;;;;0.52;0.52;;;;;;;7.14;100.00;94241.56;5032443;28;20204;-77
2023/12/07 01:22:06;;;;;;;1.17;1.15;;;;;;;6.77;100.00;94238.34;5030484;28;20204;-77
2023/12/07 01:24:32;;;;;;;0.22;0.22;;;;;;;6.99;100.00;94234.72;5032797;28;20201;-77
2023/12/07 01:26:59;;;;;;;0.20;0.20;;;;;;;6.86;100.00;94235.66;5032308;28;20209;-77
2023/12/07 01:29:26;;;;;;;0.88;0.68;;;;;;;6.83;100.00;94230.13;5030959;28;20211;-78
2023/12/07 01:31:54;;;;;;;1.60;1.50;;;;;;;7.09;100.00;94231.75;5031801;28;20208;-79
2023/12/07 01:34:21;;;;;;;0.35;0.35;;;;;;;6.98;100.00;94233.13;5032738;28;20225;-78
2023/12/07 01:36:47;;;;;;;0.40;0.40;;;;;;;6.94;100.00;94229.50;5029233;28;20948;-75
2023/12/07 01:39:15;;;;;;;0.30;0.30;;;;;;;6.88;100.00;94232.66;5031687;28;20573;-76
2023/12/07 01:41:43;;;;;;;0.75;0.75;;;;;;;6.82;100.00;94226.66;5031876;28;20295;-76
2023/12/07 01:44:09;;;;;;;1.48;1.38;;;;;;;6.77;100.00;94227.56;5030648;28;20200;-72
2023/12/07 01:46:37;;;;;;;2.08;1.38;;;;;;;6.87;100.00;94221.09;5031108;28;20216;-73
2023/12/07 01:49:05;;;;;;;0.77;0.77;;;;;;;7.07;100.00;94215.13;5029534;28;20227;-72
2023/12/07 01:51:33;;;;;;;0.85;0.85;;;;;;;7.03;100.00;94222.22;5032766;28;20656;-72
2023/12/07 01:53:59;;;;;;;1.10;0.98;;;;;;;7.04;100.00;94225.72;5032306;28;20224;-72
2023/12/07 01:56:27;;;;;;;0.28;0.28;;;;;;;7.14;100.00;94231.59;5030998;28;20275;-72
2023/12/07 01:58:54;;;;;;;1.35;1.30;;;;;;;7.22;100.00;94227.34;5030457;28;20205;-72
2023/12/07 02:01:21;;;;;;;0.52;0.52;;;;;;;7.25;100.00;94223.97;5030968;28;20301;-74
2023/12/07 02:03:48;;;;;;;1.45;1.35;;;;;;;7.02;100.00;94234.09;5031608;28;20555;-74
2023/12/07 02:06:16;;;;;;;5.45;1.60;;;;;;;6.98;100.00;94221.56;5030966;28;20215;-74
2023/12/07 02:08:44;;;;;;;0.60;0.60;;;;;;;7.09;100.00;94229.06;5027280;28;20201;-73
2023/12/07 02:11:11;;;;;;;2.60;1.70;;;;;;;7.14;100.00;94223.50;5030133;28;20258;-73
2023/12/07 02:13:39;;;;;;;0.90;0.90;;;;;;;7.31;100.00;94224.63;5029778;28;20286;-74
2023/12/07 02:16:11;;;;;;;0.88;0.85;;;;;;;7.28;100.00;94219.88;5031282;28;20211;-73
2023/12/07 02:18:42;;;;;;;1.65;1.13;;;;;;;7.23;100.00;94223.53;5031006;28;20584;-76
2023/12/07 02:21:19;;;;;;;2.33;1.45;;;;;;;7.40;100.00;94217.34;5032245;28;20564;-73
2023/12/07 02:23:50;;;;;;;3.60;0.60;;;;;;;7.31;100.00;94209.25;5028252;28;20192;-75
2023/12/07 02:26:52;;;;;;;1.15;1.05;;;;;;;7.19;100.00;94216.38;5028387;28;20201;-75
2023/12/07 02:29:19;;;;;;;0.95;0.85;;;;;;;7.00;100.00;94209.38;5030490;28;20207;-76
2023/12/07 02:31:46;;;;;;;0.65;0.65;;;;;;;7.05;100.00;94206.56;5029069;28;20212;-73
2023/12/07 02:34:13;;;;;;;2.78;2.47;;;;;;;6.87;100.00;94210.31;5029911;28;20573;-73
2023/12/07 02:36:44;;;;;;;0.40;0.40;;;;;;;6.89;100.00;94205.41;5029084;28;20234;-74
2023/12/07 02:39:12;;;;;;;0.63;0.52;;;;;;;7.02;100.00;94206.38;5031920;28;20217;-75
2023/12/07 02:41:41;;;;;;;0.60;0.60;;;;;;;7.05;100.00;94197.69;5029684;28;20223;-74
2023/12/07 02:44:10;;;;;;;1.48;1.38;;;;;;;7.10;100.00;94206.41;5029879;28;20340;-74
2023/12/07 02:46:36;;;;;;;10.13;2.05;;;;;;;7.01;100.00;94207.50;5029824;28;20649;-74
2023/12/07 02:49:03;;;;;;;0.77;0.77;;;;;;;6.75;100.00;94207.44;5027102;28;20216;-72
2023/12/07 02:51:30;;;;;;;0.35;0.30;;;;;;;6.81;100.00;94195.44;5030978;28;20200;-72
2023/12/07 02:53:57;;;;;;;0.85;0.85;;;;;;;6.89;100.00;94202.72;5029724;28;20228;-73
2023/12/07 02:56:23;;;;;;;0.95;0.95;;;;;;;6.70;100.00;94212.97;5031831;28;20208;-73
2023/12/07 02:58:50;;;;;;;2.28;1.38;;;;;;;6.80;100.00;94203.84;5030250;28;20208;-75
2023/12/07 03:01:18;;;;;;;0.93;0.90;;;;;;;6.82;100.00;94207.81;5026838;28;20608;-73
2023/12/07 03:03:45;;;;;;;0.20;0.20;;;;;;;7.06;100.00;94208.16;5029957;28;20253;-78
2023/12/07 03:06:12;;;;;;;0.65;0.65;;;;;;;6.97;100.00;94204.63;5028765;28;20204;-79
2023/12/07 03:08:38;;;;;;;0.63;0.63;;;;;;;6.36;100.00;94206.41;5031521;28;20204;-78
2023/12/07 03:11:06;;;;;;;4.28;1.27;;;;;;;6.29;100.00;94216.78;5030740;28;20216;-80
2023/12/07 03:13:33;;;;;;;0.20;0.20;;;;;;;6.28;100.00;94215.25;5029263;28;20223;-79
2023/12/07 03:16:00;;;;;;;0.50;0.50;;;;;;;5.97;100.00;94219.81;5028089;28;20267;-79
2023/12/07 03:18:28;;;;;;;2.95;1.55;;;;;;;6.40;100.00;94226.19;5025604;28;20212;-79
2023/12/07 03:20:54;;;;;;;0.45;0.45;;;;;;;6.46;100.00;94226.03;5030164;28;20204;-77
2023/12/07 03:23:21;;;;;;;0.30;0.30;;;;;;;6.39;100.00;94221.13;5029925;28;20283;-77
2023/12/07 03:25:48;;;;;;;0.70;0.70;;;;;;;6.28;100.00;94226.00;5030885;28;20204;-79
2023/12/07 03:28:15;;;;;;;0.55;0.55;;;;;;;6.53;100.00;94237.16;5026400;28;20453;-78
2023/12/07 03:30:42;;;;;;;2.30;1.27;;;;;;;6.48;100.00;94242.66;5027868;28;20320;-77
2023/12/07 03:33:08;;;;;;;1.02;1.02;;;;;;;6.44;100.00;94239.81;5029863;28;20295;-79
2023/12/07 03:35:36;;;;;;;1.60;1.48;;;;;;;6.79;100.00;94240.72;5030366;28;20235;-78
2023/12/07 03:38:03;;;;;;;0.65;0.65;;;;;;;6.74;100.00;94246.25;5027800;28;20200;-76
2023/12/07 03:40:30;;;;;;;0.25;0.25;;;;;;;6.88;100.00;94238.03;5024706;28;20208;-79
2023/12/07 03:42:57;;;;;;;1.45;0.60;;;;;;;7.11;100.00;94240.28;5027321;28;20196;-77
2023/12/07 03:45:24;;;;;;;1.00;1.00;;;;;;;7.13;100.00;94235.38;5030173;28;20200;-79
2023/12/07 03:47:50;;;;;;;4.38;1.85;;;;;;;7.16;100.00;94238.56;5028088;28;20592;-78
2023/12/07 03:50:17;;;;;;;0.40;0.40;;;;;;;7.11;100.00;94234.91;5029928;28;20281;-79
2023/12/07 03:52:46;;;;;;;0.30;0.30;;;;;;;7.11;100.00;94236.81;5029894;28;20692;-77
2023/12/07 03:55:12;;;;;;;1.48;1.00;;;;;;;7.25;100.00;94231.28;5024878;28;20224;-78
2023/12/07 03:57:39;;;;;;;1.40;1.38;;;;;;;7.28;100.00;94236.03;5029640;28;20200;-78
2023/12/07 04:00:08;;;;;;;1.02;0.70;;;;;;;7.17;100.00;94229.38;5029685;28;20204;-79
2023/12/07 04:02:35;;;;;;;0.52;0.52;;;;;;;7.20;100.00;94229.53;5028084;28;20259;-79
2023/12/07 04:05:02;;;;;;;0.95;0.95;;;;;;;7.31;100.00;94227.31;5029016;28;20258;-81
2023/12/07 04:07:29;;;;;;;0.60;0.60;;;;;;;7.12;100.00;94222.22;5029403;28;20275;-80
2023/12/07 04:09:58;;;;;;;0.30;0.30;;;;;;;7.19;100.00;94222.56;5025875;28;20300;-78
2023/12/07 04:12:25;;;;;;;0.55;0.55;;;;;;;9.76;100.00;94208.34;5028608;28;20243;-75
2023/12/07 04:14:51;;;;;;;0.47;0.47;;;;;;;9.52;100.00;94213.63;5029025;28;20262;-76
2023/12/07 04:17:18;;;;;;;1.52;0.68;;;;;;;9.08;100.00;94213.16;5025815;28;20307;-78
2023/12/07 04:19:45;;;;;;;0.85;0.85;;;;;;;8.66;100.00;94223.09;5026333;28;20568;-78
2023/12/07 04:22:12;;;;;;;0.52;0.50;;;;;;;8.07;100.00;94230.25;5025911;28;20613;-79
2023/12/07 04:24:39;;;;;;;0.60;0.60;;;;;;;7.70;100.00;94237.94;5028016;28;20200;-76
2023/12/07 04:27:07;;;;;;;1.75;1.25;;;;;;;7.68;100.00;94244.75;5026615;28;20651;-77
2023/12/07 04:29:34;;;;;;;0.77;0.77;;;;;;;7.50;100.00;94249.38;5026693;28;20603;-78
2023/12/07 04:32:02;;;;;;;0.43;0.43;;;;;;;7.40;100.00;94249.66;5021923;28;20271;-75
2023/12/07 04:34:28;;;;;;;1.13;0.82;;;;;;;7.32;100.00;94247.78;5021271;28;20773;-77
2023/12/07 04:36:55;;;;;;;0.30;0.30;;;;;;;7.28;100.00;94252.19;5021876;28;20255;-78
2023/12/07 04:39:22;;;;;;;1.45;0.65;;;;;;;7.30;100.00;94260.75;5027628;28;20208;-77
2023/12/07 04:41:49;;;;;;;2.03;1.85;;;;;;;7.23;100.00;94265.84;5027927;28;20605;-76
2023/12/07 04:44:19;;;;;;;0.20;0.20;;;;;;;7.34;100.00;94256.34;5029885;28;20200;-77
2023/12/07 04:46:45;;;;;;;2.60;2.08;;;;;;;7.27;100.00;94261.38;5028706;28;20216;-76
2023/12/07 04:49:12;;;;;;;0.93;0.93;;;;;;;7.31;100.00;94260.44;5024880;28;20566;-78
2023/12/07 04:51:41;;;;;;;1.10;1.10;;;;;;;7.24;100.00;94259.34;5029160;28;20252;-77
2023/12/07 04:54:08;;;;;;;0.30;0.30;;;;;;;7.25;100.00;94260.91;5026290;28;20212;-76
2023/12/07 04:56:35;;;;;;;2.33;0.70;;;;;;;7.35;100.00;94260.63;5021784;28;20216;-77
2023/12/07 04:59:02;;;;;;;0.82;0.82;;;;;;;7.13;100.00;94264.22;5026463;28;20216;-77
2023/12/07 05:01:30;;;;;;;0.47;0.47;;;;;;;7.32;100.00;94272.03;5028405;28;20204;-76
2023/12/07 05:03:56;;;;;;;0.30;0.30;;;;;;;7.26;100.00;94267.88;5024797;28;20566;-76
2023/12/07 05:06:23;;;;;;;0.30;0.30;;;;;;;7.13;100.00;94266.91;5027758;28;20258;-76
2023/12/07 05:08:50;;;;;;;0.85;0.80;;;;;;;7.07;100.00;94279.75;5025861;28;20214;-76
2023/12/07 05:11:17;;;;;;;3.83;0.57;;;;;;;7.03;100.00;94273.41;5029685;28;20204;-76
2023/12/07 05:13:44;;;;;;;0.20;0.20;;;;;;;6.99;100.00;94277.81;5029635;28;20213;-78
2023/12/07 05:16:12;;;;;;;0.65;0.65;;;;;;;7.12;100.00;94271.50;5032920;28;20202;-76
2023/12/07 05:18:43;;;;;;;0.63;0.63;;;;;;;7.04;100.00;94276.88;5024341;28;20311;-78
2023/12/07 05:21:11;;;;;;;0.55;0.55;;;;;;;7.00;100.00;94271.31;5024497;28;20250;-78
2023/12/07 05:23:38;;;;;;;0.57;0.57;;;;;;;7.12;100.00;94287.66;5022651;28;20263;-77
2023/12/07 05:26:07;;;;;;;0.75;0.75;;;;;;;7.11;100.00;94279.91;5017499;28;20335;-76
2023/12/07 05:28:34;;;;;;;0.30;0.30;;;;;;;6.67;100.00;94283.59;5024277;28;20291;-78
2023/12/07 05:31:01;;;;;;;2.03;1.60;;;;;;;6.40;100.00;94288.06;5009353;28;20286;-78
2023/12/07 05:33:28;;;;;;;0.93;0.73;;;;;;;6.44;100.00;94288.22;5016902;28;20200;-77
2023/12/07 05:35:56;;;;;;;0.73;0.73;;;;;;;6.40;100.00;94293.44;5030291;28;20236;-78
2023/12/07 05:38:23;;;;;;;0.50;0.50;;;;;;;6.41;100.00;94289.66;5030989;28;20248;-77
2023/12/07 05:40:52;;;;;;;1.50;1.38;;;;;;;6.64;100.00;94292.28;5022024;28;20255;-78
2023/12/07 05:43:19;;;;;;;0.20;0.20;;;;;;;6.64;100.00;94294.97;5017433;28;20246;-79
2023/12/07 05:45:46;;;;;;;0.40;0.40;;;;;;;6.59;100.00;94295.09;5040208;28;20204;-77
2023/12/07 05:48:13;;;;;;;0.28;0.28;;;;;;;6.68;100.00;94288.66;5011632;28;20213;-78
2023/12/07 05:50:40;;;;;;;0.25;0.25;;;;;;;6.95;100.00;94293.03;5024398;28;20209;-78
2023/12/07 05:53:10;;;;;;;0.20;0.20;;;;;;;6.88;100.00;94287.28;5034184;28;20251;-78
2023/12/07 05:55:40;;;;;;;0.68;0.68;;;;;;;6.88;100.00;94303.44;5039183;28;20223;-78
2023/12/07 05:58:06;;;;;;;1.08;0.77;;;;;;;6.70;100.00;94299.09;5041818;28;20231;-78
2023/12/07 06:00:33;;;;;;;0.50;0.50;;;;;;;6.54;100.00;94304.13;5033597;28;20260;-78
2023/12/07 06:03:00;;;;;;;0.30;0.30;;;;;;;6.39;100.00;94304.53;5018777;28;20207;-76
2023/12/07 06:05:27;;;;;;;0.30;0.30;;;;;;;6.49;100.00;94306.94;5040235;28;20199;-76
2023/12/07 06:07:57;;;;;;;0.30;0.30;;;;;;;6.65;100.00;94305.44;5028721;28;20604;-78
2023/12/07 06:10:25;;;;;;;0.73;0.73;;;;;;;6.97;100.00;94298.88;5014336;28;20228;-78
2023/12/07 06:12:52;;;;;;;0.20;0.20;;;;;;;7.11;100.00;94304.94;5014202;28;20620;-78
2023/12/07 06:15:19;;;;;;;0.63;0.63;;;;;;;7.00;100.00;94303.63;5026762;28;20317;-77
2023/12/07 06:17:46;;;;;;;0.35;0.35;;;;;;;6.91;100.00;94292.06;5033207;28;20287;-75
2023/12/07 06:20:13;;;;;;;0.50;0.50;;;;;;;6.66;100.00;94306.22;5039620;28;20237;-78
2023/12/07 06:22:40;;;;;;;0.40;0.40;;;;;;;6.82;100.00;94310.09;5045165;28;20598;-77
2023/12/07 06:25:09;;;;;;;1.63;1.15;;;;;;;9.35;100.00;94300.25;5021387;28;20243;-77
2023/12/07 06:27:37;;;;;;;0.20;0.20;;;;;;;10.14;100.00;94293.91;5025676;28;20207;-76
2023/12/07 06:30:06;;;;;;;0.68;0.68;;;;;;;10.31;100.00;94288.38;5021340;28;20574;-77
2023/12/07 06:32:32;;;;;;;0.25;0.25;;;;;;;11.45;100.00;94289.41;5012611;28;20247;-77
2023/12/07 06:35:00;;;;;;;0.50;0.50;;;;;;;12.28;100.00;94286.03;5030507;28;20282;-77
2023/12/07 06:37:28;;;;;;;0.45;0.45;;;;;;;12.08;99.25;94294.03;5031852;28;20220;-76
2023/12/07 06:39:54;;;;;;;0.43;0.43;;;;;;;10.67;90.29;94304.72;5026461;28;20208;-77
2023/12/07 06:42:21;;;;;;;1.30;1.20;;;;;;;11.49;91.27;94295.69;5012261;28;20213;-76
2023/12/07 06:44:50;;;;;;;0.30;0.30;;;;;;;10.08;86.71;94306.09;5012114;28;20212;-77
2023/12/07 06:47:16;;;;;;;0.68;0.68;;;;;;;8.96;89.85;94309.53;5019331;28;20295;-78
2023/12/07 06:49:43;;;;;;;0.73;0.73;;;;;;;8.35;91.47;94307.03;5025895;28;20216;-80
2023/12/07 06:52:11;;;;;;;0.77;0.77;;;;;;;7.65;94.44;94321.69;5012932;28;20240;-77
2023/12/07 06:54:38;;;;;;;0.20;0.20;;;;;;;8.01;95.03;94324.03;5012602;28;20315;-77
2023/12/07 06:57:06;;;;;;;0.30;0.30;;;;;;;8.15;94.10;94318.47;5012490;28;20263;-77
2023/12/07 06:59:33;;;;;;;0.20;0.20;;;;;;;7.93;95.37;94324.81;5012414;28;20216;-78
2023/12/07 07:02:02;;;;;;;2.25;1.38;;;;;;;7.80;95.51;94323.88;5011986;28;20641;-78
2023/12/07 07:04:29;;;;;;;0.20;0.20;;;;;;;7.94;95.25;94326.41;5012267;28;20572;-79
2023/12/07 07:06:56;;;;;;;0.68;0.35;;;;;;;7.65;96.44;94320.88;5012227;28;20220;-78
2023/12/07 07:09:23;;;;;;;0.43;0.43;;;;;;;7.61;96.54;94331.50;5012175;28;20217;-77
2023/12/07 07:11:50;;;;;;;0.30;0.30;;;;;;;7.52;96.58;94332.59;5012324;28;20205;-77
2023/12/07 07:14:17;;;;;;;2.50;0.85;;;;;;;7.59;97.18;94339.09;5012429;28;20221;-78
2023/12/07 07:16:45;;;;;;;0.98;0.30;;;;;;;7.56;96.50;94331.63;5011615;28;20229;-77
2023/12/07 07:19:16;;;;;;;0.32;0.32;;;;;;;7.65;97.07;94327.06;5011686;28;20212;-78
2023/12/07 07:21:43;;;;;;;1.20;1.08;;;;;;;7.46;97.57;94332.75;5011815;28;20193;-75
2023/12/07 07:24:10;;;;;;;0.22;0.22;;;;;;;7.33;98.00;94324.78;5022450;28;20564;-78
2023/12/07 07:26:38;;;;;;;0.32;0.32;;;;;;;7.74;97.37;94335.94;5015600;28;20220;-78
2023/12/07 07:29:06;;;;;;;0.20;0.20;;;;;;;7.65;98.08;94340.53;5010796;28;20205;-78
2023/12/07 07:31:33;;;;;;;0.32;0.32;;;;;;;7.24;98.76;94342.84;5012178;28;20245;-77
2023/12/07 07:33:59;;;;;;;0.25;0.25;;;;;;;7.60;97.84;94340.69;5022149;28;20489;-77
2023/12/07 07:36:27;;;;;;;0.20;0.20;;;;;;;7.50;97.58;94341.00;5031558;28;20221;-76
2023/12/07 07:38:54;;;;;;;0.28;0.28;;;;;;;7.17;99.61;94343.28;5034806;28;20200;-75
2023/12/07 07:41:21;;;;;;;0.30;0.30;;;;;;;7.11;98.78;94339.94;5013480;28;20264;-77
2023/12/07 07:43:48;;;;;;;0.30;0.30;;;;;;;7.34;99.35;94342.56;5011376;28;20307;-78
2023/12/07 07:46:15;;;;;;;0.20;0.20;;;;;;;7.53;98.45;94351.13;5011427;28;20535;-77
2023/12/07 07:48:42;;;;;;;0.20;0.20;;;;;;;7.10;100.00;94348.34;5029254;28;20203;-78
2023/12/07 07:51:09;;;;;;;1.30;1.20;;;;;;;7.04;100.00;94350.38;5037287;28;20584;-78
2023/12/07 07:53:37;;;;;;;1.38;0.70;;;;;;;7.25;100.00;94352.50;5009965;28;20257;-78
2023/12/07 07:56:05;;;;;;;0.40;0.40;;;;;;;7.24;100.00;94359.00;5010126;28;20232;-80
2023/12/07 07:58:32;;;;;;;0.68;0.68;;;;;;;6.91;100.00;94353.19;5010658;28;20319;-77
2023/12/07 08:00:58;;;;;;;0.50;0.50;;;;;;;6.61;100.00;94355.59;5010299;28;20209;-77
2023/12/07 08:03:25;;;;;;;0.50;0.50;;;;;;;6.25;100.00;94361.09;5012189;28;20220;-77
2023/12/07 08:05:52;;;;;;;1.52;0.77;;;;;;;6.33;100.00;94367.59;5010941;28;20236;-76
2023/12/07 08:08:19;;;;;;;0.70;0.70;;;;;;;6.40;100.00;94374.16;5010449;28;20213;-79
2023/12/07 08:10:47;;;;;;;0.65;0.65;;;;;;;6.24;100.00;94375.63;5010361;28;20217;-78
2023/12/07 08:13:14;;;;;;;0.73;0.73;;;;;;;6.41;100.00;94378.44;5010114;28;20259;-77
2023/12/07 08:15:41;;;;;;;0.30;0.30;;;;;;;6.53;100.00;94382.44;5009644;28;20295;-78
2023/12/07 08:18:10;;;;;;;0.20;0.20;;;;;;;6.42;100.00;94385.38;5023738;28;20633;-77
2023/12/07 08:20:37;;;;;;;0.30;0.30;;;;;;;6.22;100.00;94383.19;5022821;28;20215;-78
2023/12/07 08:23:04;;;;;;;0.35;0.35;;;;;;;6.13;100.00;94395.81;5016241;28;20204;-78
2023/12/07 08:25:32;;;;;;;0.25;0.25;;;;;;;5.92;100.00;94391.97;5027641;28;20208;-77
2023/12/07 08:28:00;;;;;;;0.30;0.30;;;;;;;5.86;100.00;94391.28;5014559;28;20209;-77
2023/12/07 08:30:27;;;;;;;1.38;1.27;;;;;;;5.76;100.00;94396.88;5018236;28;20204;-77
2023/12/07 08:32:54;;;;;;;0.50;0.50;;;;;;;5.75;100.00;94399.84;5031141;28;20196;-77
2023/12/07 08:35:21;;;;;;;0.20;0.20;;;;;;;5.58;100.00;94389.75;5034123;28;20232;-79
2023/12/07 08:37:48;;;;;;;0.20;0.20;;;;;;;6.02;100.00;94405.19;5011710;28;20227;-77
2023/12/07 08:40:15;;;;;;;0.30;0.30;;;;;;;5.91;100.00;94403.81;5018824;28;20324;-78
2023/12/07 08:42:47;;;;;;;0.20;0.20;;;;;;;6.04;100.00;94408.38;5012765;28;20263;-78
2023/12/07 08:45:15;;;;;;;0.20;0.20;;;;;;;5.70;100.00;94411.53;5013065;28;20193;-79
2023/12/07 08:47:42;;;;;;;0.30;0.30;;;;;;;5.62;100.00;94413.03;5011446;28;20291;-78
2023/12/07 08:50:10;;;;;;;0.50;0.50;;;;;;;5.62;100.00;94407.66;5010490;28;20221;-77
2023/12/07 08:52:37;;;;;;;2.92;1.58;;;;;;;5.57;100.00;94415.03;5010300;28;20668;-78
2023/12/07 08:55:04;;;;;;;1.52;1.40;;;;;;;5.56;100.00;94413.44;5020029;28;20220;-76
2023/12/07 08:57:31;;;;;;;1.35;0.82;;;;;;;5.58;100.00;94408.56;5029141;28;20215;-76
2023/12/07 08:59:59;;;;;;;0.20;0.20;;;;;;;5.63;100.00;94416.50;5028954;28;20257;-75
2023/12/07 09:02:27;;;;;;;0.50;0.30;;;;;;;5.56;100.00;94414.25;5029723;28;20670;-78
2023/12/07 09:04:54;;;;;;;0.20;0.20;;;;;;;5.58;100.00;94422.81;5010420;28;20544;-79
2023/12/07 09:07:21;;;;;;;0.30;0.30;;;;;;;5.67;100.00;94420.97;5014036;28;20251;-79
2023/12/07 09:09:47;;;;;;;0.40;0.40;;;;;;;5.43;100.00;94417.75;5032722;28;20207;-78
2023/12/07 09:12:15;;;;;;;0.30;0.30;;;;;;;5.72;100.00;94418.19;5016302;28;20306;-79
2023/12/07 09:14:42;;;;;;;0.20;0.20;;;;;;;5.50;100.00;94415.44;5030254;28;20223;-78
2023/12/07 09:17:09;;;;;;;0.20;0.20;;;;;;;5.40;100.00;94412.97;5029304;28;20236;-79
2023/12/07 09:19:37;;;;;;;0.30;0.30;;;;;;;5.66;100.00;94419.41;5030566;28;20207;-78
2023/12/07 09:22:04;;;;;;;0.20;0.20;;;;;;;5.65;100.00;94412.44;5023951;28;20216;-78
2023/12/07 09:24:32;;;;;;;0.20;0.20;;;;;;;5.18;100.00;94418.25;5008993;28;20205;-79
2023/12/07 09:27:00;;;;;;;0.20;0.20;;;;;;;5.02;100.00;94415.06;5012012;28;20219;-77
2023/12/07 09:29:27;;;;;;;0.20;0.20;;;;;;;5.05;100.00;94416.38;5025991;28;20205;-77
2023/12/07 09:31:53;;;;;;;0.20;0.20;;;;;;;5.20;100.00;94422.22;5026870;28;20209;-78
2023/12/07 09:34:21;;;;;;;0.20;0.20;;;;;;;5.22;100.00;94411.19;5026654;28;20216;-79
2023/12/07 09:36:49;;;;;;;0.70;0.70;;;;;;;5.17;100.00;94412.09;5034009;28;20326;-78
2023/12/07 09:39:16;;;;;;;0.68;0.68;;;;;;;5.14;100.00;94411.88;5032786;28;20242;-79
2023/12/07 09:41:46;;;;;;;0.77;0.77;;;;;;;5.19;100.00;94423.34;5013953;28;20718;-79
2023/12/07 09:44:13;;;;;;;1.55;0.80;;;;;;;5.30;100.00;94423.91;5020851;28;20205;-81
2023/12/07 09:46:40;;;;;;;0.93;0.80;;;;;;;5.20;100.00;94421.41;5033097;28;20212;-79
2023/12/07 09:49:07;;;;;;;0.20;0.20;;;;;;;5.36;100.00;94420.81;5032633;28;20623;-79
2023/12/07 09:51:35;;;;;;;0.70;0.47;;;;;;;5.21;100.00;94417.63;5032830;28;20216;-80
2023/12/07 09:54:04;;;;;;;0.80;0.80;;;;;;;5.20;100.00;94416.84;5032170;28;20212;-79
2023/12/07 09:56:31;;;;;;;0.50;0.50;;;;;;;4.51;100.00;94415.97;5031952;28;20232;-75
2023/12/07 09:58:58;;;;;;;0.20;0.20;;;;;;;4.56;100.00;94420.47;5032647;28;20211;-77
2023/12/07 10:01:29;;;;;;;0.20;0.20;;;;;;;4.64;100.00;94425.97;5033613;28;20654;-80
2023/12/07 10:04:18;;;;;;;0.28;0.28;;;;;;;4.56;100.00;94434.66;5033197;28;20197;-81
2023/12/07 10:06:47;;;;;;;0.68;0.68;;;;;;;4.33;100.00;94424.88;5033781;28;20278;-73
2023/12/07 10:09:15;;;;;;;0.32;0.32;;;;;;;4.48;100.00;94426.50;5032890;28;20212;-73
2023/12/07 10:11:45;;;;;;;0.40;0.40;;;;;;;4.39;100.00;94428.25;5033359;28;20600;-73
2023/12/07 10:14:11;;;;;;;0.65;0.50;;;;;;;4.21;100.00;94435.25;5032640;28;20299;-73
2023/12/07 10:16:38;;;;;;;0.43;0.43;;;;;;;4.37;100.00;94430.47;5033273;28;20228;-73
2023/12/07 10:19:17;;;;;;;0.80;0.57;;;;;;;4.20;100.00;94436.34;5024947;28;20204;-73
2023/12/07 10:21:44;;;;;;;0.30;0.30;;;;;;;4.25;100.00;94429.00;5029564;28;20215;-73
2023/12/07 10:24:11;;;;;;;0.40;0.40;;;;;;;4.28;100.00;94428.41;5033011;28;20578;-73
2023/12/07 10:26:40;;;;;;;0.17;0.17;;;;;;;4.15;100.00;94423.00;5033069;28;20211;-74
2023/12/07 10:29:07;;;;;;;0.20;0.20;;;;;;;4.01;100.00;94417.59;5032756;28;20623;-74
2023/12/07 10:31:34;;;;;;;0.73;0.73;;;;;;;3.98;100.00;94434.25;5028712;28;20213;-75
2023/12/07 10:34:01;;;;;;;0.20;0.20;;;;;;;3.69;100.00;94430.94;5023129;28;20216;-73
2023/12/07 10:36:29;;;;;;;0.20;0.20;;;;;;;3.57;100.00;94424.09;5032923;28;20649;-73
2023/12/07 10:38:55;;;;;;;0.40;0.40;;;;;;;3.70;100.00;94433.31;5031358;28;20223;-73
2023/12/07 10:41:24;;;;;;;0.80;0.80;;;;;;;3.58;100.00;94424.91;5014913;28;20267;-71
2023/12/07 10:43:55;;;;;;;0.68;0.60;;;;;;;3.96;100.00;94430.28;5024267;28;20270;-74
2023/12/07 10:46:22;;;;;;;0.70;0.70;;;;;;;3.71;100.00;94429.53;5013609;28;20205;-73
2023/12/07 10:48:56;;;;;;;0.30;0.30;;;;;;;3.77;100.00;94425.72;5012523;28;20237;-72
2023/12/07 10:51:30;;;;;;;0.30;0.30;;;;;;;3.57;100.00;94429.47;5012279;28;20213;-73
2023/12/07 10:53:58;;;;;;;0.55;0.55;;;;;;;3.84;100.00;94430.72;5012401;28;20319;-73
2023/12/07 10:56:30;;;;;;;0.45;0.45;;;;;;;3.84;100.00;94433.38;5012399;28;20256;-74
2023/12/07 10:58:59;;;;;;;0.50;0.50;;;;;;;4.13;100.00;94422.50;5012536;28;20287;-73
2023/12/07 11:01:26;;;;;;;0.50;0.50;;;;;;;3.55;100.00;94426.28;5022964;28;20583;-73
2023/12/07 11:03:54;;;;;;;0.50;0.50;;;;;;;3.68;100.00;94429.34;5012194;28;20250;-73
2023/12/07 11:06:21;;;;;;;0.40;0.40;;;;;;;3.50;100.00;94436.28;5021420;28;20243;-74
2023/12/07 11:08:50;;;;;;;0.52;0.52;;;;;;;3.47;100.00;94434.97;5016002;28;20830;-75
2023/12/07 11:11:25;;;;;;;0.85;0.50;;;;;;;3.57;100.00;94429.47;5012525;28;20208;-73
2023/12/07 11:13:57;;;;;;;0.30;0.30;;;;;;;3.63;100.00;94432.09;5011776;28;20266;-74
2023/12/07 11:16:31;;;;;;;0.57;0.57;;;;;;;3.48;100.00;94431.22;5012240;28;20267;-73
2023/12/07 11:18:59;;;;;;;0.40;0.40;;;;;;;3.46;100.00;94427.22;5012118;28;20209;-73
2023/12/07 11:21:26;;;;;;;1.23;0.75;;;;;;;3.50;100.00;94434.41;5025210;28;20216;-72
2023/12/07 11:23:54;;;;;;;0.52;0.45;;;;;;;3.54;100.00;94440.78;5011904;28;20216;-73
2023/12/07 11:26:21;;;;;;;0.30;0.30;;;;;;;3.55;100.00;94431.63;5012233;28;20634;-73
2023/12/07 11:28:48;;;;;;;0.40;0.40;;;;;;;3.62;100.00;94435.84;5011576;28;20299;-74
2023/12/07 11:31:16;;;;;;;0.55;0.50;;;;;;;3.42;100.00;94432.34;5011855;28;20614;-74
2023/12/07 11:33:47;;;;;;;1.20;0.90;;;;;;;3.61;100.00;94428.91;5020342;28;20299;-74
2023/12/07 11:36:14;;;;;;;0.40;0.40;;;;;;;3.54;100.00;94407.84;5031712;28;20541;-72